createdAt,value
2018-06-23T00:00:28.409Z,12.00
2018-06-23T00:02:55.620Z,11.90
2018-06-23T00:05:22.863Z,11.90
2018-06-23T00:07:50.032Z,12.00
2018-06-23T00:10:17.160Z,11.90
2018-06-23T00:12:44.262Z,11.90
2018-06-23T00:15:11.404Z,11.90
2018-06-23T00:17:38.526Z,12.00
2018-06-23T00:20:06.074Z,11.90
2018-06-23T00:22:33.339Z,11.80
2018-06-23T00:25:00.450Z,11.80
2018-06-23T00:27:27.610Z,11.70
2018-06-23T00:29:54.810Z,11.80
2018-06-23T00:32:21.933Z,11.70
2018-06-23T00:34:49.162Z,11.70
2018-06-23T00:37:16.266Z,11.70
2018-06-23T00:42:10.516Z,11.60
2018-06-23T00:44:37.646Z,11.50
2018-06-23T00:47:04.814Z,11.60
2018-06-23T00:49:31.915Z,11.50
2018-06-23T00:51:59.051Z,11.50
2018-06-23T00:54:26.185Z,11.50
2018-06-23T00:56:53.385Z,11.50
2018-06-23T00:59:34.866Z,11.40
2018-06-23T01:02:02.073Z,11.50
2018-06-23T01:04:29.198Z,11.50
2018-06-23T01:06:56.382Z,11.50
2018-06-23T01:09:23.530Z,11.40
2018-06-23T01:11:50.670Z,11.30
2018-06-23T01:14:17.785Z,11.30
2018-06-23T01:16:44.917Z,11.40
2018-06-23T01:21:39.214Z,11.30
2018-06-23T01:24:06.359Z,11.30
2018-06-23T01:26:33.483Z,11.20
2018-06-23T01:31:27.799Z,11.20
2018-06-23T01:33:54.977Z,11.20
2018-06-23T01:36:22.215Z,11.10
2018-06-23T01:38:49.335Z,11.10
2018-06-23T01:41:16.438Z,11.10
2018-06-23T01:46:10.682Z,11.30
2018-06-23T01:48:37.792Z,11.10
2018-06-23T01:51:05.195Z,11.00
2018-06-23T01:53:32.330Z,11.00
2018-06-23T01:55:59.442Z,11.00
2018-06-23T01:58:26.555Z,10.90
2018-06-23T02:00:53.716Z,10.80
2018-06-23T02:03:20.826Z,10.80
2018-06-23T02:05:48.184Z,10.90
2018-06-23T02:10:42.447Z,10.70
2018-06-23T02:13:09.567Z,10.80
2018-06-23T02:15:42.575Z,10.80
2018-06-23T02:20:48.547Z,10.80
2018-06-23T02:23:21.459Z,10.70
2018-06-23T02:25:54.302Z,10.80
2018-06-23T02:28:27.186Z,10.90
2018-06-23T02:31:00.048Z,10.80
2018-06-23T02:33:32.860Z,10.80
2018-06-23T02:36:00.039Z,10.80
2018-06-23T02:38:27.228Z,10.80
2018-06-23T02:40:54.393Z,10.80
2018-06-23T02:43:21.553Z,10.70
2018-06-23T02:45:48.683Z,10.80
2018-06-23T02:48:15.801Z,10.80
2018-06-23T02:50:42.926Z,10.80
2018-06-23T02:53:10.095Z,10.70
2018-06-23T02:55:37.259Z,10.80
2018-06-23T02:58:04.678Z,10.70
2018-06-23T03:00:31.804Z,10.70
2018-06-23T03:02:58.949Z,10.70
2018-06-23T03:05:26.071Z,10.60
2018-06-23T03:07:53.352Z,10.60
2018-06-23T03:10:20.470Z,10.60
2018-06-23T03:12:47.624Z,10.40
2018-06-23T03:15:14.771Z,10.40
2018-06-23T03:17:41.887Z,10.50
2018-06-23T03:20:09.054Z,10.50
2018-06-23T03:25:03.415Z,10.50
2018-06-23T03:27:30.559Z,10.50
2018-06-23T03:29:57.719Z,10.40
2018-06-23T03:32:24.831Z,10.30
2018-06-23T03:34:51.942Z,10.40
2018-06-23T03:37:19.063Z,10.40
2018-06-23T03:39:46.170Z,10.50
2018-06-23T03:42:13.272Z,10.50
2018-06-23T03:44:40.367Z,10.50
2018-06-23T03:47:07.543Z,10.50
2018-06-23T03:49:34.759Z,10.50
2018-06-23T03:52:01.919Z,10.50
2018-06-23T03:54:29.048Z,10.70
2018-06-23T03:56:56.237Z,10.70
2018-06-23T03:59:23.474Z,10.80
2018-06-23T04:01:50.602Z,11.00
2018-06-23T04:04:17.715Z,11.20
2018-06-23T04:06:44.855Z,11.20
2018-06-23T04:09:12.018Z,11.30
2018-06-23T04:14:06.584Z,11.60
2018-06-23T04:16:34.031Z,11.80
2018-06-23T04:19:01.169Z,11.90
2018-06-23T04:21:29.523Z,11.90
2018-06-23T04:23:56.914Z,12.00
2018-06-23T04:26:24.362Z,12.10
2018-06-23T04:28:51.504Z,12.10
2018-06-23T04:31:18.779Z,12.20
2018-06-23T04:33:46.020Z,12.10
2018-06-23T04:36:13.715Z,12.30
2018-06-23T04:38:40.827Z,12.40
2018-06-23T04:41:07.950Z,12.30
2018-06-23T04:43:35.079Z,12.40
2018-06-23T04:46:02.219Z,12.60
2018-06-23T04:48:29.401Z,12.70
2018-06-23T04:50:56.578Z,13.00
2018-06-23T04:53:23.692Z,13.10
2018-06-23T04:55:51.328Z,13.10
2018-06-23T04:58:18.443Z,13.30
2018-06-23T05:00:45.583Z,13.40
2018-06-23T05:03:12.834Z,13.40
2018-06-23T05:05:40.047Z,13.40
2018-06-23T05:08:07.451Z,13.50
2018-06-23T05:10:34.611Z,13.50
2018-06-23T05:13:01.745Z,13.60
2018-06-23T05:15:28.936Z,13.70
2018-06-23T05:17:56.035Z,13.70
2018-06-23T05:20:23.167Z,14.10
2018-06-23T05:22:50.281Z,14.10
2018-06-23T05:25:17.402Z,13.70
2018-06-23T05:27:44.519Z,14.20
2018-06-23T05:30:11.727Z,14.40
2018-06-23T05:32:38.816Z,14.50
2018-06-23T05:35:05.958Z,14.30
2018-06-23T05:37:33.101Z,14.70
2018-06-23T05:40:00.386Z,15.20
2018-06-23T05:42:27.482Z,15.40
2018-06-23T05:44:54.609Z,15.30
2018-06-23T05:47:22.119Z,15.00
2018-06-23T05:49:49.268Z,14.90
2018-06-23T05:52:16.432Z,15.20
2018-06-23T05:54:43.546Z,15.30
2018-06-23T05:57:10.656Z,16.20
2018-06-23T05:59:37.979Z,16.80
2018-06-23T06:02:05.330Z,18.10
2018-06-23T06:04:32.661Z,17.70
2018-06-23T06:06:59.859Z,17.90
2018-06-23T06:09:26.955Z,18.40
2018-06-23T06:11:54.081Z,19.50
2018-06-23T06:14:21.227Z,20.00
2018-06-23T06:17:54.027Z,22.00
2018-06-23T06:20:27.871Z,22.90
2018-06-23T06:22:55.007Z,26.20
2018-06-23T06:25:22.155Z,27.30
2018-06-23T06:27:49.492Z,29.60
2018-06-23T06:30:16.651Z,30.30
2018-06-23T06:32:43.766Z,27.10
2018-06-23T06:35:10.911Z,27.50
2018-06-23T06:37:38.094Z,30.40
2018-06-23T06:40:05.962Z,34.60
2018-06-23T06:42:33.135Z,35.80
2018-06-23T06:45:00.294Z,37.50
2018-06-23T06:47:27.459Z,35.30
2018-06-23T06:49:54.579Z,34.00
2018-06-23T06:52:22.122Z,34.20
2018-06-23T06:54:49.271Z,33.90
2018-06-23T06:57:16.478Z,35.20
2018-06-23T06:59:43.541Z,36.90
2018-06-23T07:02:10.699Z,38.00
2018-06-23T07:04:37.883Z,37.90
2018-06-23T07:07:05.188Z,34.20
2018-06-23T07:09:32.351Z,31.80
2018-06-23T07:11:59.487Z,31.20
2018-06-23T07:14:26.611Z,32.50
2018-06-23T07:16:53.864Z,32.40
2018-06-23T07:19:20.975Z,34.90
2018-06-23T07:21:48.199Z,34.50
2018-06-23T07:24:15.346Z,36.40
2018-06-23T07:26:42.464Z,37.70
2018-06-23T07:29:09.631Z,37.70
2018-06-23T07:31:36.840Z,36.60
2018-06-23T07:34:04.099Z,36.20
2018-06-23T07:36:31.221Z,34.20
2018-06-23T07:38:58.552Z,35.10
2018-06-23T07:41:25.702Z,35.00
2018-06-23T07:43:52.815Z,34.40
2018-06-23T07:46:19.994Z,36.10
2018-06-23T07:48:47.108Z,36.90
2018-06-23T07:51:14.383Z,34.50
2018-06-23T07:53:41.834Z,33.50
2018-06-23T07:56:09.271Z,34.60
2018-06-23T07:58:36.491Z,35.80
2018-06-23T08:01:04.095Z,36.70
2018-06-23T08:05:58.852Z,35.70
2018-06-23T08:08:26.117Z,38.50
2018-06-23T08:10:53.259Z,39.70
2018-06-23T08:13:20.393Z,40.70
2018-06-23T08:15:47.520Z,37.40
2018-06-23T08:18:14.644Z,34.30
2018-06-23T08:20:41.766Z,33.40
2018-06-23T08:23:09.019Z,34.40
2018-06-23T08:25:36.179Z,36.70
2018-06-23T08:28:03.453Z,34.80
2018-06-23T08:30:31.285Z,34.80
2018-06-23T08:32:59.422Z,33.80
2018-06-23T08:35:28.695Z,34.60
2018-06-23T08:37:56.099Z,36.70
2018-06-23T08:40:23.255Z,35.00
2018-06-23T08:42:50.517Z,34.70
2018-06-23T08:45:17.902Z,33.10
2018-06-23T08:47:45.005Z,30.10
2018-06-23T08:52:39.265Z,28.20
2018-06-23T08:55:06.408Z,29.10
2018-06-23T08:57:33.643Z,31.50
2018-06-23T09:00:00.804Z,32.30
2018-06-23T09:02:28.169Z,33.80
2018-06-23T09:04:55.347Z,35.60
2018-06-23T09:07:22.482Z,37.00
2018-06-23T09:09:49.603Z,36.80
2018-06-23T09:12:16.939Z,37.00
2018-06-23T09:14:44.047Z,33.50
2018-06-23T09:17:11.416Z,34.50
2018-06-23T09:19:38.697Z,33.70
2018-06-23T09:22:05.854Z,32.70
2018-06-23T09:24:33.040Z,32.30
2018-06-23T09:27:01.222Z,33.70
2018-06-23T09:29:28.402Z,31.90
2018-06-23T09:31:55.615Z,29.40
2018-06-23T09:34:22.748Z,28.50
2018-06-23T09:36:49.870Z,28.80
2018-06-23T09:39:17.232Z,30.20
2018-06-23T09:41:44.351Z,29.00
2018-06-23T09:44:11.483Z,29.00
2018-06-23T09:46:38.621Z,27.00
2018-06-23T09:49:05.784Z,27.40
2018-06-23T09:51:33.008Z,27.70
2018-06-23T09:54:00.217Z,27.80
2018-06-23T09:56:27.383Z,26.00
2018-06-23T09:58:54.657Z,25.10
2018-06-23T10:01:21.792Z,25.00
2018-06-23T10:03:48.926Z,24.40
2018-06-23T10:06:16.039Z,25.40
2018-06-23T10:08:43.191Z,24.60
2018-06-23T10:11:10.303Z,23.80
2018-06-23T10:13:37.457Z,22.80
2018-06-23T10:16:04.756Z,22.20
2018-06-23T10:18:31.927Z,21.80
2018-06-23T10:20:59.173Z,22.00
2018-06-23T10:23:26.297Z,22.20
2018-06-23T10:25:53.430Z,22.10
2018-06-23T10:28:20.563Z,22.10
2018-06-23T10:30:47.672Z,23.60
2018-06-23T10:33:14.787Z,24.20
2018-06-23T10:35:41.931Z,24.20
2018-06-23T10:38:09.343Z,24.40
2018-06-23T10:40:36.486Z,23.80
2018-06-23T10:43:03.647Z,22.80
2018-06-23T10:45:30.800Z,22.50
2018-06-23T10:47:57.959Z,22.50
2018-06-23T10:50:25.182Z,22.10
2018-06-23T10:52:52.471Z,22.10
2018-06-23T10:55:19.629Z,22.00
2018-06-23T10:57:46.796Z,21.50
2018-06-23T11:00:13.941Z,21.40
2018-06-23T11:02:41.170Z,21.90
2018-06-23T11:05:08.460Z,22.40
2018-06-23T11:07:35.708Z,21.70
2018-06-23T11:10:02.930Z,21.50
2018-06-23T11:12:30.045Z,21.80
2018-06-23T11:14:57.180Z,21.80
2018-06-23T11:17:24.359Z,21.60
2018-06-23T11:19:51.604Z,21.70
2018-06-23T11:22:18.809Z,21.20
2018-06-23T11:24:45.991Z,21.20
2018-06-23T11:27:13.119Z,21.30
2018-06-23T11:29:40.300Z,21.60
2018-06-23T11:32:07.463Z,21.00
2018-06-23T11:34:34.527Z,20.70
2018-06-23T11:37:01.719Z,20.70
2018-06-23T11:39:28.817Z,20.50
2018-06-23T11:41:56.615Z,20.70
2018-06-23T11:44:23.808Z,21.00
2018-06-23T11:46:51.468Z,21.10
2018-06-23T11:49:18.737Z,21.00
2018-06-23T11:51:45.887Z,21.10
2018-06-23T11:54:13.938Z,20.40
2018-06-23T11:56:41.071Z,21.10
2018-06-23T11:59:08.302Z,21.20
2018-06-23T12:01:35.442Z,21.40
2018-06-23T12:04:02.629Z,20.90
2018-06-23T12:06:29.772Z,20.60
2018-06-23T12:08:56.936Z,21.00
2018-06-23T12:11:24.140Z,20.40
2018-06-23T12:13:51.518Z,20.10
2018-06-23T12:16:19.050Z,20.00
2018-06-23T12:18:46.186Z,19.70
2018-06-23T12:21:13.335Z,19.60
2018-06-23T12:23:40.742Z,19.40
2018-06-23T12:26:07.916Z,19.40
2018-06-23T12:28:35.063Z,19.80
2018-06-23T12:31:02.175Z,20.10
2018-06-23T12:33:29.323Z,20.20
2018-06-23T12:35:56.547Z,20.50
2018-06-23T12:38:23.723Z,20.90
2018-06-23T12:40:50.878Z,20.70
2018-06-23T12:43:17.990Z,21.20
2018-06-23T12:45:45.115Z,21.10
2018-06-23T12:48:12.226Z,21.10
2018-06-23T12:50:39.472Z,21.00
2018-06-23T12:53:06.610Z,20.70
2018-06-23T12:55:33.757Z,20.50
2018-06-23T12:58:00.925Z,20.80
2018-06-23T13:00:28.065Z,21.60
2018-06-23T13:02:55.254Z,22.00
2018-06-23T13:05:22.465Z,22.20
2018-06-23T13:07:49.595Z,22.40
2018-06-23T13:10:16.777Z,22.30
2018-06-23T13:12:44.008Z,22.10
2018-06-23T13:15:11.187Z,21.80
2018-06-23T13:17:38.243Z,21.50
2018-06-23T13:20:05.391Z,21.60
2018-06-23T13:22:32.525Z,22.00
2018-06-23T13:24:59.664Z,22.10
2018-06-23T13:27:26.863Z,22.20
2018-06-23T13:29:54.121Z,22.40
2018-06-23T13:32:21.297Z,21.90
2018-06-23T13:34:48.468Z,22.20
2018-06-23T13:37:15.595Z,22.50
2018-06-23T13:39:42.749Z,22.70
2018-06-23T13:42:09.865Z,22.70
2018-06-23T13:44:37.002Z,22.30
2018-06-23T13:47:04.222Z,22.40
2018-06-23T13:49:31.328Z,22.60
2018-06-23T13:51:58.432Z,22.00
2018-06-23T13:54:25.627Z,22.50
2018-06-23T13:56:52.835Z,22.50
2018-06-23T13:59:20.339Z,22.00
2018-06-23T14:01:47.468Z,21.60
2018-06-23T14:04:14.698Z,21.60
2018-06-23T14:06:41.907Z,21.70
2018-06-23T14:09:10.400Z,21.30
2018-06-23T14:11:37.866Z,21.40
2018-06-23T14:14:05.067Z,21.20
2018-06-23T14:16:32.192Z,21.60
2018-06-23T14:18:59.320Z,21.50
2018-06-23T14:21:26.476Z,21.60
2018-06-23T14:23:53.705Z,21.70
2018-06-23T14:26:20.959Z,22.10
2018-06-23T14:28:48.102Z,22.40
2018-06-23T14:31:15.282Z,22.30
2018-06-23T14:33:42.351Z,22.30
2018-06-23T14:36:09.460Z,22.40
2018-06-23T14:38:36.581Z,22.40
2018-06-23T14:41:03.732Z,22.40
2018-06-23T14:43:30.923Z,22.40
2018-06-23T14:45:58.051Z,22.40
2018-06-23T14:48:25.283Z,22.40
2018-06-23T14:50:52.443Z,22.40
2018-06-23T14:53:19.753Z,22.30
2018-06-23T14:55:46.943Z,22.30
2018-06-23T14:58:14.183Z,21.90
2018-06-23T15:00:41.286Z,21.80
2018-06-23T15:03:08.394Z,21.30
2018-06-23T15:05:35.527Z,20.40
2018-06-23T15:08:14.534Z,20.50
2018-06-23T15:10:53.311Z,20.60
2018-06-23T15:13:20.499Z,20.70
2018-06-23T15:15:47.639Z,21.00
2018-06-23T15:18:14.799Z,21.30
2018-06-23T15:20:42.300Z,21.50
2018-06-23T15:23:09.460Z,21.50
2018-06-23T15:25:36.599Z,21.30
2018-06-23T15:28:03.778Z,20.90
2018-06-23T15:30:30.894Z,20.90
2018-06-23T15:32:58.061Z,20.80
2018-06-23T15:35:25.275Z,20.60
2018-06-23T15:37:52.826Z,20.70
2018-06-23T15:40:19.955Z,20.60
2018-06-23T15:42:47.117Z,20.10
2018-06-23T15:45:14.274Z,19.90
2018-06-23T15:47:41.592Z,19.50
2018-06-23T15:50:08.751Z,18.80
2018-06-23T15:52:35.861Z,19.10
2018-06-23T15:55:02.999Z,19.10
2018-06-23T15:57:30.161Z,19.30
2018-06-23T15:59:57.350Z,19.40
2018-06-23T16:02:24.652Z,19.50
2018-06-23T16:04:51.722Z,19.50
2018-06-23T16:07:19.112Z,19.40
2018-06-23T16:09:46.243Z,19.40
2018-06-23T16:12:13.342Z,19.60
2018-06-23T16:14:40.456Z,19.70
2018-06-23T16:17:07.568Z,20.00
2018-06-23T16:19:34.697Z,19.70
2018-06-23T16:22:01.898Z,19.70
2018-06-23T16:24:29.039Z,19.80
2018-06-23T16:26:56.223Z,19.80
2018-06-23T16:29:23.395Z,19.80
2018-06-23T16:31:50.530Z,19.70
2018-06-23T16:34:17.642Z,19.70
2018-06-23T16:36:44.791Z,19.60
2018-06-23T16:39:11.932Z,19.80
2018-06-23T16:41:39.188Z,19.60
2018-06-23T16:44:06.656Z,19.60
2018-06-23T16:46:34.147Z,19.60
2018-06-23T16:49:01.264Z,19.70
2018-06-23T16:51:28.467Z,19.70
2018-06-23T16:53:55.748Z,19.70
2018-06-23T16:56:22.927Z,19.70
2018-06-23T16:58:50.063Z,19.80
2018-06-23T17:01:17.163Z,20.00
2018-06-23T17:03:44.463Z,20.30
2018-06-23T17:06:11.515Z,20.40
2018-06-23T17:08:38.657Z,20.50
2018-06-23T17:11:05.827Z,20.30
2018-06-23T17:13:32.977Z,19.90
2018-06-23T17:18:27.497Z,19.20
2018-06-23T17:20:54.714Z,19.10
2018-06-23T17:23:21.860Z,18.90
2018-06-23T17:25:48.971Z,19.10
2018-06-23T17:28:16.106Z,19.10
2018-06-23T17:30:43.233Z,19.10
2018-06-23T17:33:10.395Z,19.00
2018-06-23T17:35:37.529Z,19.00
2018-06-23T17:38:04.672Z,19.30
2018-06-23T17:40:31.794Z,19.00
2018-06-23T17:42:58.966Z,18.60
2018-06-23T17:45:26.160Z,18.50
2018-06-23T17:47:53.385Z,18.50
2018-06-23T17:50:20.535Z,18.70
2018-06-23T17:52:47.724Z,18.80
2018-06-23T17:55:15.073Z,18.80
2018-06-23T17:57:42.416Z,18.60
2018-06-23T18:00:09.335Z,18.60
2018-06-23T18:02:36.903Z,18.10
2018-06-23T18:05:04.103Z,18.00
2018-06-23T18:07:31.751Z,18.00
2018-06-23T18:09:58.945Z,17.90
2018-06-23T18:12:26.179Z,17.90
2018-06-23T18:14:53.395Z,17.70
2018-06-23T18:19:47.694Z,17.70
2018-06-23T18:22:14.796Z,17.70
2018-06-23T18:24:41.912Z,17.50
2018-06-23T18:27:09.031Z,17.40
2018-06-23T18:29:36.155Z,17.40
2018-06-23T18:32:03.482Z,17.30
2018-06-23T18:34:30.631Z,17.20
2018-06-23T18:36:57.867Z,17.20
2018-06-23T18:39:25.076Z,17.10
2018-06-23T18:41:52.188Z,17.00
2018-06-23T18:44:19.316Z,17.00
2018-06-23T18:46:46.431Z,16.90
2018-06-23T18:49:13.582Z,16.80
2018-06-23T18:51:40.717Z,16.70
2018-06-23T18:54:07.873Z,16.70
2018-06-23T18:56:34.980Z,16.60
2018-06-23T18:59:02.088Z,16.50
2018-06-23T19:01:29.270Z,16.50
2018-06-23T19:03:56.433Z,16.40
2018-06-23T19:06:23.675Z,16.30
2018-06-23T19:08:50.884Z,16.30
2018-06-23T19:11:17.996Z,16.20
2018-06-23T19:13:45.112Z,16.20
2018-06-23T19:18:39.346Z,16.00
2018-06-23T19:21:06.837Z,16.00
2018-06-23T19:23:33.942Z,15.90
2018-06-23T19:26:01.125Z,15.90
2018-06-23T19:28:28.440Z,15.70
2018-06-23T19:30:55.687Z,15.60
2018-06-23T19:33:22.832Z,15.50
2018-06-23T19:35:49.979Z,15.40
2018-06-23T19:38:17.097Z,15.40
2018-06-23T19:40:44.222Z,15.40
2018-06-23T19:43:11.354Z,15.30
2018-06-23T19:45:38.491Z,15.20
2018-06-23T19:48:05.611Z,15.10
2018-06-23T19:50:32.771Z,15.20
2018-06-23T19:52:59.899Z,15.20
2018-06-23T19:55:27.125Z,15.30
2018-06-23T19:57:54.451Z,15.30
2018-06-23T20:00:21.597Z,15.20
2018-06-23T20:02:48.747Z,15.10
2018-06-23T20:05:15.846Z,15.00
2018-06-23T20:07:42.956Z,14.90
2018-06-23T20:10:10.055Z,14.70
2018-06-23T20:12:37.180Z,14.70
2018-06-23T20:15:04.528Z,14.80
2018-06-23T20:17:31.685Z,14.70
2018-06-23T20:19:58.871Z,14.50
2018-06-23T20:22:26.063Z,14.60
2018-06-23T20:24:53.203Z,14.40
2018-06-23T20:27:20.311Z,14.30
2018-06-23T20:32:14.716Z,14.10
2018-06-23T20:34:41.932Z,14.00
2018-06-23T20:37:09.052Z,14.00
2018-06-23T20:39:36.186Z,13.90
2018-06-23T20:42:03.307Z,13.90
2018-06-23T20:44:30.479Z,14.00
2018-06-23T20:46:57.655Z,14.00
2018-06-23T20:49:24.832Z,13.90
2018-06-23T20:51:51.972Z,14.00
2018-06-23T20:54:19.082Z,14.00
2018-06-23T20:56:46.240Z,13.90
2018-06-23T20:59:13.354Z,13.80
2018-06-23T21:01:40.953Z,13.80
2018-06-23T21:04:10.120Z,13.70
2018-06-23T21:06:37.441Z,13.70
2018-06-23T21:09:06.722Z,13.70
2018-06-23T21:11:33.892Z,13.80
2018-06-23T21:14:01.042Z,13.60
2018-06-23T21:16:28.218Z,13.60
2018-06-23T21:18:55.411Z,13.50
2018-06-23T21:21:22.574Z,13.50
2018-06-23T21:23:49.672Z,13.40
2018-06-23T21:26:16.818Z,13.40
2018-06-23T21:28:43.976Z,13.40
2018-06-23T21:31:11.141Z,13.30
2018-06-23T21:33:38.690Z,13.40
2018-06-23T21:36:06.247Z,13.40
2018-06-23T21:38:33.399Z,13.60
2018-06-23T21:41:00.635Z,13.70
2018-06-23T21:43:27.825Z,13.60
2018-06-23T21:45:55.313Z,13.60
2018-06-23T21:48:22.651Z,13.70
2018-06-23T21:50:49.997Z,13.70
2018-06-23T21:55:44.530Z,13.70
2018-06-23T21:58:11.636Z,13.80
2018-06-23T22:00:40.248Z,13.90
2018-06-23T22:03:09.024Z,14.10
2018-06-23T22:05:36.163Z,14.20
2018-06-23T22:08:03.883Z,14.30
2018-06-23T22:10:31.182Z,14.40
2018-06-23T22:12:58.377Z,14.50
2018-06-23T22:15:25.687Z,14.50
2018-06-23T22:17:52.852Z,14.50
2018-06-23T22:20:20.212Z,14.40
2018-06-23T22:22:47.885Z,14.50
2018-06-23T22:25:15.300Z,14.50
2018-06-23T22:27:42.984Z,14.50
2018-06-23T22:30:10.153Z,14.60
2018-06-23T22:32:37.314Z,14.60
2018-06-23T22:35:04.448Z,14.90
2018-06-23T22:37:31.627Z,14.90
2018-06-23T22:39:58.763Z,14.90
2018-06-23T22:42:26.073Z,14.90
2018-06-23T22:44:53.212Z,14.90
2018-06-23T22:47:20.379Z,14.80
2018-06-23T22:49:47.518Z,14.70
2018-06-23T22:52:14.648Z,14.70
2018-06-23T22:54:41.784Z,14.70
2018-06-23T22:57:08.919Z,14.70
2018-06-23T22:59:36.055Z,14.70
2018-06-23T23:02:03.222Z,14.60
2018-06-23T23:04:30.410Z,14.60
2018-06-23T23:06:57.578Z,14.60
2018-06-23T23:09:24.979Z,14.60
2018-06-23T23:14:19.324Z,14.70
2018-06-23T23:16:53.597Z,14.60
2018-06-23T23:19:21.015Z,14.70
2018-06-23T23:21:48.300Z,14.70
2018-06-23T23:24:15.575Z,14.60
2018-06-23T23:26:42.939Z,14.50
2018-06-23T23:29:10.412Z,14.50
2018-06-23T23:31:37.547Z,14.40
2018-06-23T23:34:04.968Z,14.60
2018-06-23T23:36:32.130Z,14.40
2018-06-23T23:38:59.274Z,14.40
2018-06-23T23:41:26.451Z,14.40
2018-06-23T23:43:53.580Z,14.40
2018-06-23T23:46:20.702Z,14.40
2018-06-23T23:48:47.866Z,14.40
2018-06-23T23:51:15.028Z,14.30
2018-06-23T23:53:42.140Z,14.20
2018-06-23T23:56:09.251Z,14.20
2018-06-23T23:58:36.372Z,14.10
